Time;durP1;ratioP1;P1;durP2;ratioP2;P2;SDS_P1;SDS_P2;PMS_P1;PMS_P2;Temp;Humidity;BMP_temperature;BMP_pressure;BME280_temperature;BME280_humidity;BME280_pressure;Samples;Min_cycle;Max_cycle;Signal;HPM_P1;HPM_P2
2024/03/17 00:01:12;;;;;;;13.75;8.65;;;;;;;9.53;55.90;102288.25;4905221;28;118490;-62
2024/03/17 00:03:38;;;;;;;18.20;9.07;;;;;;;9.53;55.83;102283.88;4920618;28;119142;-62
2024/03/17 00:06:05;;;;;;;14.48;8.32;;;;;;;9.54;55.83;102285.59;4920029;28;123980;-63
2024/03/17 00:08:31;;;;;;;16.83;8.65;;;;;;;9.53;56.01;102281.22;4922034;28;124538;-62
2024/03/17 00:10:58;;;;;;;14.90;9.10;;;;;;;9.55;55.76;102282.06;4926078;28;118758;-63
2024/03/17 00:13:24;;;;;;;14.32;8.95;;;;;;;9.55;55.87;102276.78;4907444;28;118185;-63
2024/03/17 00:15:51;;;;;;;15.75;9.32;;;;;;;9.54;55.87;102275.00;4923457;28;124386;-63
2024/03/17 00:18:18;;;;;;;13.75;8.60;;;;;;;9.54;55.80;102269.72;4907932;28;123831;-63
2024/03/17 00:20:44;;;;;;;15.52;9.05;;;;;;;9.54;55.79;102274.16;4919802;28;118715;-63
2024/03/17 00:23:12;;;;;;;15.75;8.20;;;;;;;9.52;55.86;102268.88;4920195;28;118955;-63
2024/03/17 00:25:39;;;;;;;13.88;8.07;;;;;;;9.52;55.90;102260.06;4919283;28;124162;-63
2024/03/17 00:28:08;;;;;;;14.27;7.82;;;;;;;9.50;55.77;102262.75;4923752;28;123707;-62
2024/03/17 00:30:36;;;;;;;12.27;7.60;;;;;;;9.50;56.08;102267.16;4919785;28;120287;-70
2024/03/17 00:33:03;;;;;;;10.45;7.53;;;;;;;9.49;56.15;102261.03;4920657;28;120069;-63
2024/03/17 00:35:30;;;;;;;13.05;7.65;;;;;;;9.49;56.17;102255.72;4909427;28;125649;-63
2024/03/17 00:37:58;;;;;;;10.60;6.93;;;;;;;9.48;56.10;102253.97;4893757;28;123499;-63
2024/03/17 00:40:24;;;;;;;11.05;7.25;;;;;;;9.46;56.31;102255.78;4917790;28;119389;-63
2024/03/17 00:42:51;;;;;;;13.43;7.57;;;;;;;9.45;56.00;102254.00;4924205;28;119690;-63
2024/03/17 00:45:17;;;;;;;12.43;7.20;;;;;;;9.44;55.97;102254.06;4920934;28;123980;-63
2024/03/17 00:47:45;;;;;;;11.63;7.47;;;;;;;9.44;56.10;102252.28;4917066;28;123804;-63
2024/03/17 00:50:11;;;;;;;11.93;6.90;;;;;;;9.41;55.94;102247.03;4922032;28;119072;-63
2024/03/17 00:52:38;;;;;;;13.35;7.68;;;;;;;9.40;56.21;102249.69;4906848;28;119495;-63
2024/03/17 00:55:05;;;;;;;12.65;6.57;;;;;;;9.38;56.19;102246.22;4922107;28;123754;-63
2024/03/17 00:57:32;;;;;;;14.88;7.15;;;;;;;9.35;55.93;102247.16;4921740;28;124747;-63
2024/03/17 00:59:58;;;;;;;11.73;6.95;;;;;;;9.32;55.96;102255.13;4925280;28;119650;-63
2024/03/17 01:02:25;;;;;;;10.93;7.05;;;;;;;9.30;56.18;102254.28;4909455;28;118296;-69
2024/03/17 01:04:51;;;;;;;12.35;7.18;;;;;;;9.29;56.01;102247.28;4923950;28;125925;-63
2024/03/17 01:07:17;;;;;;;15.73;7.20;;;;;;;9.27;56.12;102243.78;4920023;28;123907;-62
2024/03/17 01:09:47;;;;;;;13.50;7.20;;;;;;;9.24;55.92;102246.47;4924043;28;119357;-63
2024/03/17 01:12:14;;;;;;;13.30;7.30;;;;;;;9.21;56.30;102243.84;4922783;28;119377;-63
2024/03/17 01:14:40;;;;;;;9.88;6.75;;;;;;;9.18;55.95;102250.09;4919980;28;124238;-63
2024/03/17 01:17:07;;;;;;;13.35;7.28;;;;;;;9.13;56.29;102236.91;4921426;28;124806;-64
2024/03/17 01:19:33;;;;;;;12.10;7.80;;;;;;;9.13;56.15;102244.00;4919869;28;121240;-63
2024/03/17 01:22:00;;;;;;;12.70;7.47;;;;;;;9.10;56.24;102237.00;4918688;28;119978;-63
2024/03/17 01:24:31;;;;;;;11.73;7.20;;;;;;;9.08;56.47;102244.06;4922555;28;124304;-62
2024/03/17 01:27:01;;;;;;;12.23;7.00;;;;;;;9.05;56.17;102238.84;4924093;28;123024;-63
2024/03/17 01:29:27;;;;;;;9.30;6.97;;;;;;;9.04;56.28;102237.09;4916716;28;119082;-63
2024/03/17 01:31:55;;;;;;;12.80;8.15;;;;;;;9.02;56.19;102230.94;4921361;28;119209;-63
2024/03/17 01:34:22;;;;;;;15.00;7.25;;;;;;;9.00;56.04;102235.38;4906304;28;123947;-63
2024/03/17 01:36:48;;;;;;;15.30;7.75;;;;;;;8.98;56.00;102231.88;4920072;28;124344;-64
2024/03/17 01:39:16;;;;;;;12.68;7.55;;;;;;;8.95;56.06;102232.81;4924499;28;119578;-63
2024/03/17 01:41:42;;;;;;;11.18;7.68;;;;;;;8.93;56.35;102225.84;4927088;28;119556;-63
2024/03/17 01:44:28;;;;;;;10.90;7.22;;;;;;;8.90;55.93;102218.81;4924919;28;123951;-63
2024/03/17 01:46:57;;;;;;;12.40;7.30;;;;;;;8.88;55.99;102217.97;4921316;28;123796;-63
2024/03/17 01:49:26;;;;;;;11.85;7.55;;;;;;;8.87;56.22;102212.69;4924380;28;119340;-63
2024/03/17 01:51:53;;;;;;;14.65;7.55;;;;;;;8.86;56.05;102205.69;4936251;28;119136;-63
2024/03/17 01:54:20;;;;;;;14.35;8.07;;;;;;;8.83;56.31;102200.44;4923745;28;124241;-63
2024/03/17 01:56:47;;;;;;;11.85;7.43;;;;;;;8.80;56.08;102200.47;4927204;28;123320;-63
2024/03/17 01:59:14;;;;;;;13.60;7.57;;;;;;;8.79;56.37;102204.03;4921812;28;119624;-64
2024/03/17 02:01:41;;;;;;;13.25;7.40;;;;;;;8.76;56.15;102200.53;4925548;28;119571;-68
2024/03/17 02:04:07;;;;;;;12.80;7.88;;;;;;;8.74;56.40;102197.06;4905945;28;121945;-64
2024/03/17 02:06:34;;;;;;;12.18;7.35;;;;;;;8.71;56.25;102191.81;4924176;28;123897;-64
2024/03/17 02:09:00;;;;;;;13.43;7.45;;;;;;;8.68;56.30;102202.44;4943310;28;120176;-64
2024/03/17 02:11:28;;;;;;;12.75;7.50;;;;;;;8.65;56.24;102197.19;4920420;28;121221;-64
2024/03/17 02:13:55;;;;;;;10.20;6.72;;;;;;;8.63;56.14;102192.84;4925589;28;124025;-64
2024/03/17 02:16:25;;;;;;;13.77;7.47;;;;;;;8.60;56.24;102199.03;4908096;28;123618;-64
2024/03/17 02:18:58;;;;;;;11.75;7.22;;;;;;;8.56;56.13;102192.03;4922307;28;119338;-64
2024/03/17 02:21:28;;;;;;;11.30;6.40;;;;;;;8.55;56.49;102190.28;4908333;28;119433;-64
2024/03/17 02:23:56;;;;;;;14.38;7.60;;;;;;;8.52;56.20;102190.34;4924533;28;123601;-64
2024/03/17 02:26:25;;;;;;;11.88;7.93;;;;;;;8.50;56.18;102195.66;4904738;28;123758;-64
2024/03/17 02:28:52;;;;;;;15.07;7.93;;;;;;;8.46;56.34;102190.44;4924364;28;119383;-64
2024/03/17 02:31:18;;;;;;;13.13;7.90;;;;;;;8.43;56.22;102190.47;4920639;28;119340;-64
2024/03/17 02:33:45;;;;;;;14.00;7.63;;;;;;;8.40;56.42;102191.38;4922168;28;124221;-64
2024/03/17 02:36:12;;;;;;;13.07;7.35;;;;;;;8.38;56.58;102199.31;4924961;28;124257;-64
2024/03/17 02:41:25;;;;;;;12.43;7.68;;;;;;;8.33;56.46;102184.44;4920293;28;119424;-64
2024/03/17 02:43:51;;;;;;;10.82;7.60;;;;;;;8.31;56.64;102180.94;4905069;28;122267;-64
2024/03/17 02:46:18;;;;;;;11.55;8.05;;;;;;;8.30;56.70;102177.41;4924783;28;125195;-64
2024/03/17 02:48:51;;;;;;;14.75;7.40;;;;;;;8.30;56.79;102177.41;4923702;28;119329;-64
2024/03/17 02:51:19;;;;;;;17.17;8.10;;;;;;;8.29;56.66;102180.97;4924229;28;117946;-64
2024/03/17 02:53:48;;;;;;;12.07;7.88;;;;;;;8.27;56.80;102180.13;4920985;28;123905;-64
2024/03/17 02:56:16;;;;;;;12.10;7.72;;;;;;;8.27;57.01;102177.47;4926462;28;123830;-64
2024/03/17 02:58:48;;;;;;;13.95;8.32;;;;;;;8.27;57.06;102171.31;4923930;28;120190;-64
2024/03/17 03:01:16;;;;;;;12.10;7.97;;;;;;;8.28;57.27;102166.00;4926055;28;120023;-64
2024/03/17 03:03:42;;;;;;;12.82;8.38;;;;;;;8.30;57.09;102164.22;4907277;28;122979;-65
2024/03/17 03:06:09;;;;;;;12.98;8.75;;;;;;;8.33;57.37;102168.59;4922757;28;124506;-64
2024/03/17 03:08:38;;;;;;;13.35;8.48;;;;;;;8.35;57.24;102167.66;4924173;28;119393;-65
2024/03/17 03:11:07;;;;;;;11.48;8.40;;;;;;;8.38;57.28;102162.34;4911760;28;117987;-66
2024/03/17 03:13:33;;;;;;;16.00;8.38;;;;;;;8.43;57.36;102170.22;4907924;28;124239;-65
2024/03/17 03:15:59;;;;;;;13.48;8.05;;;;;;;8.47;57.46;102171.06;4907255;28;123889;-65
2024/03/17 03:18:27;;;;;;;15.20;8.88;;;;;;;8.50;57.36;102165.75;4904640;28;120375;-65
2024/03/17 03:20:53;;;;;;;12.77;8.27;;;;;;;8.54;57.49;102178.00;4925302;28;118973;-65
2024/03/17 03:23:19;;;;;;;13.05;8.68;;;;;;;8.57;57.31;102170.03;4907778;28;123808;-65
2024/03/17 03:25:50;;;;;;;14.32;8.75;;;;;;;8.61;57.49;102179.66;4924701;28;123360;-65
2024/03/17 03:28:16;;;;;;;16.25;8.70;;;;;;;8.65;57.42;102176.06;4925313;28;119416;-65
2024/03/17 03:30:43;;;;;;;15.70;8.63;;;;;;;8.69;57.79;102172.47;4920690;28;119157;-65
2024/03/17 03:33:09;;;;;;;13.00;8.57;;;;;;;8.74;57.81;102181.22;4908234;28;124361;-65
2024/03/17 03:35:36;;;;;;;15.32;9.05;;;;;;;8.79;57.69;102174.97;4922657;28;123995;-65
2024/03/17 03:38:02;;;;;;;11.40;8.68;;;;;;;8.83;57.88;102179.31;4925723;28;119286;-65
2024/03/17 03:40:29;;;;;;;14.38;8.82;;;;;;;8.88;57.97;102172.19;4925009;28;119119;-65
2024/03/17 03:42:56;;;;;;;12.02;8.57;;;;;;;8.92;57.57;102165.94;4921221;28;124533;-66
2024/03/17 03:45:22;;;;;;;12.70;9.25;;;;;;;8.96;57.94;102154.41;4905727;28;123238;-65
2024/03/17 03:47:50;;;;;;;14.25;9.07;;;;;;;9.00;57.90;102156.09;4922715;28;119993;-65
2024/03/17 03:50:19;;;;;;;18.88;9.05;;;;;;;9.03;57.96;102155.19;4924928;28;119774;-66
2024/03/17 03:52:46;;;;;;;17.35;8.98;;;;;;;9.06;57.80;102156.03;4923963;28;123454;-65
2024/03/17 03:55:15;;;;;;;16.95;8.98;;;;;;;9.09;57.66;102153.31;4924807;28;124000;-65
2024/03/17 03:57:42;;;;;;;15.48;8.93;;;;;;;9.12;57.82;102150.63;4908810;28;119026;-65
2024/03/17 04:00:21;;;;;;;15.60;9.00;;;;;;;9.14;57.89;102146.19;4905538;28;118940;-65
2024/03/17 04:02:52;;;;;;;14.95;9.05;;;;;;;9.18;58.03;102148.78;4919429;28;124000;-65
2024/03/17 04:05:19;;;;;;;16.52;9.05;;;;;;;9.21;57.83;102138.13;4908179;28;123981;-65
2024/03/17 04:07:47;;;;;;;14.20;9.10;;;;;;;9.24;57.81;102127.50;4928852;28;120433;-65
2024/03/17 04:10:15;;;;;;;14.55;9.20;;;;;;;9.27;58.03;102133.59;4912146;28;118069;-65
2024/03/17 04:12:42;;;;;;;14.30;9.32;;;;;;;9.30;58.06;102132.66;4920848;28;123634;-65
2024/03/17 04:15:10;;;;;;;16.25;9.27;;;;;;;9.31;58.16;102129.13;4924935;28;123874;-65
2024/03/17 04:17:37;;;;;;;16.02;10.07;;;;;;;9.33;58.13;102132.63;4907237;28;119269;-65
2024/03/17 04:20:07;;;;;;;17.23;9.80;;;;;;;9.36;58.11;102124.59;4909819;28;118286;-65
2024/03/17 04:22:34;;;;;;;17.52;10.18;;;;;;;9.38;58.09;102130.78;4921422;28;124915;-65
2024/03/17 04:25:01;;;;;;;17.55;9.98;;;;;;;9.41;58.12;102130.69;4923612;28;123974;-65
2024/03/17 04:27:28;;;;;;;17.55;9.75;;;;;;;9.42;57.88;102132.44;4923448;28;119428;-65
2024/03/17 04:29:56;;;;;;;18.92;9.98;;;;;;;9.43;58.05;102123.59;4906214;28;119223;-65
2024/03/17 04:32:23;;;;;;;15.80;9.55;;;;;;;9.46;58.21;102117.41;4909008;28;123987;-65
2024/03/17 04:34:51;;;;;;;14.77;10.15;;;;;;;9.47;58.20;102109.41;4906853;28;123054;-65
2024/03/17 04:37:17;;;;;;;15.70;9.38;;;;;;;9.49;58.00;102107.63;4922733;28;120397;-65
2024/03/17 04:39:45;;;;;;;14.50;9.43;;;;;;;9.51;58.14;102104.94;4923495;28;120184;-65
2024/03/17 04:42:19;;;;;;;15.23;9.80;;;;;;;9.52;58.13;102107.53;4914729;28;124309;-67
2024/03/17 04:44:46;;;;;;;18.70;10.30;;;;;;;9.54;57.99;102105.75;4924582;28;123652;-65
2024/03/17 04:47:13;;;;;;;17.35;10.30;;;;;;;9.55;58.17;102107.50;4907465;28;119290;-65
2024/03/17 04:49:44;;;;;;;15.60;9.32;;;;;;;9.58;58.08;102108.34;4922964;28;118965;-65
2024/03/17 04:52:11;;;;;;;17.30;9.45;;;;;;;9.58;58.14;102108.34;4917264;28;124262;-66
2024/03/17 04:54:38;;;;;;;17.50;9.88;;;;;;;9.58;57.98;102111.84;4920440;28;123984;-65
2024/03/17 04:57:04;;;;;;;15.00;10.07;;;;;;;9.59;57.88;102096.84;4920009;28;119269;-65
2024/03/17 04:59:34;;;;;;;19.17;10.15;;;;;;;9.60;58.11;102098.59;4916960;28;118414;-66
2024/03/17 05:02:00;;;;;;;15.18;10.70;;;;;;;9.62;57.87;102096.78;4913985;28;124076;-65
2024/03/17 05:04:27;;;;;;;15.68;9.55;;;;;;;9.63;58.15;102093.25;4920682;28;123734;-65
2024/03/17 05:06:53;;;;;;;15.77;10.02;;;;;;;9.63;57.94;102093.25;4920843;28;119333;-66
2024/03/17 05:09:20;;;;;;;14.25;9.50;;;;;;;9.64;58.12;102093.19;4921142;28;119227;-65
2024/03/17 05:11:49;;;;;;;16.42;10.05;;;;;;;9.64;57.95;102094.97;4912845;28;124238;-65
2024/03/17 05:14:16;;;;;;;16.13;9.85;;;;;;;9.65;58.16;102099.38;4910431;28;122969;-65
2024/03/17 05:16:42;;;;;;;18.92;10.13;;;;;;;9.67;58.13;102100.22;4894984;28;118478;-65
2024/03/17 05:19:09;;;;;;;15.65;10.25;;;;;;;9.68;58.17;102107.22;4925517;28;119504;-65
2024/03/17 05:21:36;;;;;;;16.88;9.82;;;;;;;9.69;58.17;102098.41;4912297;28;123131;-66
2024/03/17 05:24:02;;;;;;;11.15;5.95;;;;;;;9.69;57.81;102093.13;4906771;28;123922;-65
2024/03/17 05:26:31;;;;;;;10.63;5.57;;;;;;;9.69;57.98;102093.13;4923199;28;120225;-65
2024/03/17 05:28:57;;;;;;;11.38;5.30;;;;;;;9.71;57.92;102091.31;4911391;28;119607;-65
2024/03/17 05:31:24;;;;;;;11.85;5.25;;;;;;;9.71;57.73;102092.16;4921171;28;123976;-66
2024/03/17 05:33:52;;;;;;;10.50;4.85;;;;;;;9.72;57.71;102093.06;4926214;28;124023;-65
2024/03/17 05:36:20;;;;;;;10.80;5.35;;;;;;;9.73;58.00;102089.50;4926958;28;119277;-65
2024/03/17 05:38:46;;;;;;;10.85;5.15;;;;;;;9.72;57.58;102098.34;4925124;28;120363;-65
2024/03/17 05:41:14;;;;;;;10.63;5.32;;;;;;;9.71;57.65;102099.22;4925162;28;123958;-66
2024/03/17 05:43:40;;;;;;;9.55;4.72;;;;;;;9.71;57.47;102101.88;4924426;28;123856;-65
2024/03/17 05:46:09;;;;;;;10.82;5.20;;;;;;;9.70;57.46;102105.41;4923097;28;119803;-65
2024/03/17 05:48:37;;;;;;;13.98;5.50;;;;;;;9.71;57.64;102107.19;4923822;28;117715;-65
2024/03/17 05:51:12;;;;;;;10.40;5.18;;;;;;;9.69;57.55;102104.56;4906499;28;124060;-65
2024/03/17 05:53:44;;;;;;;9.80;5.55;;;;;;;9.69;57.25;102098.41;4922280;28;124350;-65
2024/03/17 05:56:13;;;;;;;10.73;5.03;;;;;;;9.66;57.38;102093.16;4926201;28;119150;-66
2024/03/17 05:58:39;;;;;;;11.60;5.88;;;;;;;9.65;57.57;102091.44;4922445;28;119019;-65
2024/03/17 06:01:09;;;;;;;11.80;5.80;;;;;;;9.65;57.40;102091.44;4921265;28;123052;-65
2024/03/17 06:03:36;;;;;;;10.80;5.30;;;;;;;9.67;57.64;102079.06;4925414;28;124157;-65
2024/03/17 06:06:03;;;;;;;11.75;5.38;;;;;;;9.66;57.42;102072.00;4922067;28;118627;-67
2024/03/17 06:08:30;;;;;;;10.88;4.93;;;;;;;9.68;57.38;102086.06;4909815;28;118443;-65
2024/03/17 06:11:00;;;;;;;12.40;5.93;;;;;;;9.67;57.49;102084.34;4910087;28;123800;-66
2024/03/17 06:13:28;;;;;;;15.38;5.57;;;;;;;9.69;57.44;102074.59;4921956;28;124590;-66
2024/03/17 06:15:54;;;;;;;12.23;5.38;;;;;;;9.69;57.09;102072.81;4923001;28;119197;-65
2024/03/17 06:18:21;;;;;;;11.10;5.32;;;;;;;9.70;57.40;102079.84;4929830;28;121301;-65
2024/03/17 06:20:47;;;;;;;12.13;5.53;;;;;;;9.72;57.50;102079.81;4922716;28;124099;-65
2024/03/17 06:23:15;;;;;;;11.60;5.57;;;;;;;9.75;57.51;102082.38;4923228;28;123895;-65
2024/03/17 06:25:44;;;;;;;12.32;5.30;;;;;;;9.77;57.51;102083.22;4924267;28;120861;-65
2024/03/17 06:28:14;;;;;;;13.63;5.45;;;;;;;9.80;57.40;102084.94;4909608;28;118943;-66
2024/03/17 06:30:42;;;;;;;11.73;5.32;;;;;;;9.81;57.39;102084.88;4912618;28;123843;-66
2024/03/17 06:33:12;;;;;;;12.85;5.47;;;;;;;9.84;57.42;102086.63;4925546;28;123823;-65
2024/03/17 06:35:38;;;;;;;10.38;5.60;;;;;;;9.86;57.66;102090.97;4911596;28;118438;-66
2024/03/17 06:38:09;;;;;;;10.45;5.40;;;;;;;9.90;57.42;102089.97;4924229;28;119283;-66
2024/03/17 06:40:37;;;;;;;13.23;5.72;;;;;;;9.92;57.34;102090.81;4923036;28;124948;-65
2024/03/17 06:43:04;;;;;;;10.23;5.22;;;;;;;9.96;57.41;102086.34;4922550;28;123919;-66
2024/03/17 06:45:30;;;;;;;9.60;5.40;;;;;;;9.98;57.57;102083.66;4919700;28;119458;-66
2024/03/17 06:48:01;;;;;;;11.98;5.22;;;;;;;9.99;57.60;102082.75;4926413;28;119259;-66
2024/03/17 06:50:27;;;;;;;10.95;5.07;;;;;;;10.00;57.30;102080.09;4909620;28;123344;-66
2024/03/17 06:52:56;;;;;;;12.73;5.43;;;;;;;10.02;57.51;102080.03;4926120;28;124304;-66
2024/03/17 06:55:24;;;;;;;11.38;5.60;;;;;;;10.03;57.33;102073.84;4926862;28;119297;-66
2024/03/17 06:57:51;;;;;;;11.43;5.20;;;;;;;10.06;57.57;102073.78;4894289;28;118973;-66
2024/03/17 07:00:24;;;;;;;10.73;4.90;;;;;;;10.08;57.49;102082.56;4897037;28;123514;-66
2024/03/17 07:02:51;;;;;;;12.07;5.45;;;;;;;10.11;57.25;102085.13;4901352;28;123788;-66
2024/03/17 07:05:18;;;;;;;9.05;4.65;;;;;;;10.13;57.57;102084.19;4924361;28;120815;-66
2024/03/17 07:07:45;;;;;;;10.70;5.18;;;;;;;10.20;57.45;102089.34;4922059;28;120124;-64
2024/03/17 07:10:15;;;;;;;8.73;4.60;;;;;;;10.22;57.44;102092.81;4923079;28;124536;-66
2024/03/17 07:12:42;;;;;;;11.32;5.38;;;;;;;10.26;57.31;102089.19;4921809;28;124075;-66
2024/03/17 07:15:11;;;;;;;7.38;4.10;;;;;;;10.29;57.53;102095.28;4910096;28;118986;-66
2024/03/17 07:17:38;;;;;;;9.57;4.60;;;;;;;10.32;57.50;102095.25;4912048;28;118128;-66
2024/03/17 07:20:08;;;;;;;9.88;4.88;;;;;;;10.35;57.30;102082.84;4912224;28;123802;-66
2024/03/17 07:22:35;;;;;;;9.00;4.60;;;;;;;10.37;57.37;102096.91;4937602;28;124134;-66
2024/03/17 07:25:02;;;;;;;8.40;4.55;;;;;;;10.42;57.37;102089.75;4934248;22;119437;-63
2024/03/17 07:27:30;;;;;;;9.00;4.53;;;;;;;10.46;57.41;102091.41;4923672;28;117742;-63
2024/03/17 07:29:57;;;;;;;8.13;4.15;;;;;;;10.52;57.56;102097.41;4905524;28;125482;-63
2024/03/17 07:32:25;;;;;;;8.55;4.78;;;;;;;10.59;57.32;102095.47;4913707;28;124500;-63
2024/03/17 07:34:52;;;;;;;8.88;4.97;;;;;;;10.69;57.72;102091.69;4923910;28;119559;-63
2024/03/17 07:37:21;;;;;;;10.52;5.15;;;;;;;10.80;57.76;102085.25;4888387;28;119082;-64
2024/03/17 07:39:49;;;;;;;8.43;4.63;;;;;;;10.89;57.60;102092.97;4904175;28;124288;-63
2024/03/17 07:42:16;;;;;;;11.07;5.00;;;;;;;10.98;57.69;102095.38;4907137;28;124236;-64
2024/03/17 07:44:45;;;;;;;8.95;4.70;;;;;;;11.07;57.70;102089.78;4896333;28;118295;-67
2024/03/17 07:47:11;;;;;;;10.05;5.03;;;;;;;11.18;57.84;102092.16;4908937;28;119020;-63
2024/03/17 07:49:38;;;;;;;8.60;4.15;;;;;;;11.27;57.66;102091.06;4888702;28;122808;-64
2024/03/17 07:52:05;;;;;;;9.57;4.68;;;;;;;11.35;57.73;102078.44;4886861;28;123079;-64
2024/03/17 07:54:31;;;;;;;14.43;5.13;;;;;;;11.44;57.54;102077.31;4907142;28;120564;-63
2024/03/17 07:56:58;;;;;;;8.50;4.40;;;;;;;11.52;57.41;102079.75;4909514;28;121260;-63
2024/03/17 07:59:24;;;;;;;9.15;4.45;;;;;;;11.57;57.48;102083.13;4875523;28;123103;-63
2024/03/17 08:01:52;;;;;;;6.80;4.43;;;;;;;11.64;57.54;102074.06;4887981;28;124063;-63
2024/03/17 08:04:18;;;;;;;7.75;4.57;;;;;;;11.68;57.41;102068.63;4903633;28;119412;-63
2024/03/17 08:06:45;;;;;;;8.90;4.10;;;;;;;11.74;57.46;102075.53;4896962;28;119117;-63
2024/03/17 08:09:12;;;;;;;8.50;4.03;;;;;;;11.80;57.19;102090.41;4874096;28;122926;-63
2024/03/17 08:11:46;;;;;;;9.63;4.22;;;;;;;11.82;57.19;102078.81;4903908;28;124407;-63
2024/03/17 08:14:14;;;;;;;8.70;4.40;;;;;;;11.86;57.23;102080.44;4905484;28;119302;-63
2024/03/17 08:16:41;;;;;;;7.95;4.00;;;;;;;11.93;57.58;102080.31;4899843;28;119838;-63
2024/03/17 08:19:08;;;;;;;9.88;4.40;;;;;;;11.99;57.22;102080.13;4900238;28;124003;-63
2024/03/17 08:21:35;;;;;;;6.60;3.78;;;;;;;12.06;57.25;102076.38;4899923;28;124137;-64
2024/03/17 08:24:01;;;;;;;8.60;3.72;;;;;;;12.14;57.26;102079.63;4869761;28;118487;-63
2024/03/17 08:26:27;;;;;;;7.05;3.60;;;;;;;12.19;57.12;102066.22;4899691;28;118969;-62
2024/03/17 08:28:54;;;;;;;6.82;3.63;;;;;;;12.24;57.25;102059.84;4906543;28;124948;-63
2024/03/17 08:31:20;;;;;;;6.13;3.65;;;;;;;12.31;57.09;102059.66;4866433;28;122908;-63
2024/03/17 08:33:47;;;;;;;9.20;3.65;;;;;;;12.36;57.11;102063.03;4887068;28;119362;-63
2024/03/17 08:36:17;;;;;;;6.93;3.72;;;;;;;12.43;57.20;102069.84;4883773;28;117982;-63
2024/03/17 08:38:45;;;;;;;6.82;4.05;;;;;;;12.51;57.09;102062.50;4901105;28;124950;-66
2024/03/17 08:41:13;;;;;;;12.20;3.60;;;;;;;12.59;57.07;102071.06;4898569;28;123768;-63
2024/03/17 08:43:41;;;;;;;7.43;4.22;;;;;;;12.69;57.07;102065.47;4912458;28;120496;-63
2024/03/17 08:46:09;;;;;;;6.78;3.83;;;;;;;12.77;56.99;102058.06;4903828;28;119907;-63
2024/03/17 08:48:38;;;;;;;7.95;3.90;;;;;;;12.85;57.00;102066.66;4907404;28;124376;-63
2024/03/17 08:51:06;;;;;;;6.80;3.83;;;;;;;12.91;56.81;102066.44;4888334;28;122105;-63
2024/03/17 08:53:33;;;;;;;5.95;3.45;;;;;;;12.96;56.82;102072.47;4898313;28;119589;-63
2024/03/17 08:55:59;;;;;;;9.98;3.65;;;;;;;13.00;56.63;102066.13;4898976;28;119320;-63
2024/03/17 08:58:28;;;;;;;5.15;3.53;;;;;;;13.07;56.77;102065.91;4908328;28;124356;-63
2024/03/17 09:00:56;;;;;;;6.53;3.47;;;;;;;13.13;56.63;102063.00;4906594;28;124020;-63
2024/03/17 09:03:22;;;;;;;7.13;3.72;;;;;;;13.21;56.68;102068.94;4909775;28;119269;-63
2024/03/17 09:05:49;;;;;;;8.02;3.97;;;;;;;13.28;56.65;102056.25;4904255;28;118842;-63
2024/03/17 09:08:20;;;;;;;8.27;4.50;;;;;;;13.36;56.73;102065.75;4887745;28;125282;-63
2024/03/17 09:10:48;;;;;;;8.65;4.15;;;;;;;13.47;56.58;102064.47;4906005;28;123760;-63
2024/03/17 09:13:17;;;;;;;9.95;3.95;;;;;;;13.54;56.54;102056.22;4906191;28;119431;-63
2024/03/17 09:15:51;;;;;;;6.55;3.83;;;;;;;13.61;56.53;102046.19;4896796;28;119502;-63
2024/03/17 09:18:19;;;;;;;7.97;3.65;;;;;;;13.68;56.40;102050.34;4908001;28;124426;-63
2024/03/17 09:20:46;;;;;;;7.70;4.00;;;;;;;13.71;56.32;102047.59;4904824;28;124586;-63
2024/03/17 09:23:14;;;;;;;7.53;3.72;;;;;;;13.73;56.30;102044.84;4892162;28;119160;-63
2024/03/17 09:25:41;;;;;;;8.10;4.13;;;;;;;13.79;56.38;102040.16;4888456;28;117886;-63
2024/03/17 09:28:08;;;;;;;8.02;4.25;;;;;;;13.90;56.35;102041.50;4905118;28;124233;-63
2024/03/17 09:30:35;;;;;;;9.27;4.13;;;;;;;13.98;56.28;102042.09;4909741;28;123677;-63
2024/03/17 09:33:02;;;;;;;7.28;3.85;;;;;;;14.10;56.20;102049.56;4892397;28;119807;-63
2024/03/17 09:35:30;;;;;;;7.45;3.97;;;;;;;14.18;56.27;102052.81;4893959;28;118940;-63
2024/03/17 09:37:57;;;;;;;7.18;3.90;;;;;;;14.28;55.97;102053.28;4905009;28;125011;-62
2024/03/17 09:40:23;;;;;;;6.57;4.25;;;;;;;14.36;56.04;102045.84;4890719;28;124037;-62
2024/03/17 09:42:50;;;;;;;6.07;3.97;;;;;;;14.45;56.16;102049.94;4909958;28;118792;-62
2024/03/17 09:45:21;;;;;;;7.05;3.47;;;;;;;14.56;56.03;102045.00;4910221;28;118881;-63
2024/03/17 09:47:48;;;;;;;6.63;3.72;;;;;;;14.64;55.79;102043.84;4907499;28;124085;-63
2024/03/17 09:50:21;;;;;;;7.32;3.97;;;;;;;14.71;55.65;102050.63;4905432;28;123974;-62
2024/03/17 09:52:48;;;;;;;7.65;4.13;;;;;;;14.75;55.49;102042.44;4902789;28;120579;-62
2024/03/17 09:55:19;;;;;;;9.13;4.13;;;;;;;14.80;55.61;102047.56;4893097;28;118153;-62
2024/03/17 09:57:46;;;;;;;7.95;4.00;;;;;;;14.86;55.50;102039.31;4885117;28;124535;-62
2024/03/17 10:00:14;;;;;;;8.18;3.72;;;;;;;14.93;55.44;102042.56;4902957;28;123781;-63
2024/03/17 10:02:45;;;;;;;7.50;4.13;;;;;;;14.98;55.38;102038.75;4895089;28;119111;-62
2024/03/17 10:05:24;;;;;;;8.55;3.85;;;;;;;15.04;55.25;102042.09;4906800;28;119075;-62
2024/03/17 10:07:51;;;;;;;6.20;3.60;;;;;;;15.11;55.37;102043.56;4901921;28;125351;-62
2024/03/17 10:10:21;;;;;;;6.00;3.70;;;;;;;15.18;55.22;102040.56;4907322;28;124222;-62
2024/03/17 10:12:51;;;;;;;8.90;4.10;;;;;;;15.27;55.24;102033.91;4907087;28;119347;-62
2024/03/17 10:15:23;;;;;;;6.53;3.60;;;;;;;15.34;55.20;102039.84;4908823;28;119138;-62
2024/03/17 10:17:50;;;;;;;8.40;3.53;;;;;;;15.39;55.09;102037.84;4909578;28;124159;-62
2024/03/17 10:20:18;;;;;;;8.73;3.80;;;;;;;15.42;54.88;102032.34;4903926;28;124200;-62
2024/03/17 10:23:04;;;;;;;6.70;3.90;;;;;;;15.48;55.09;102033.84;4900820;28;120557;-62
2024/03/17 10:25:33;;;;;;;6.15;3.53;;;;;;;15.55;54.89;102037.97;4908325;23;119225;-86
2024/03/17 10:28:02;;;;;;;6.03;3.70;;;;;;;15.61;54.91;102023.47;4952263;28;123291;-86
2024/03/17 10:30:30;;;;;;;6.10;3.92;;;;;;;15.67;55.07;102016.06;4939266;28;124095;-87
2024/03/17 10:32:59;;;;;;;6.10;3.97;;;;;;;15.75;54.75;102023.72;4921802;28;118713;-85
2024/03/17 10:35:26;;;;;;;7.07;3.67;;;;;;;15.80;54.76;102019.00;4929192;28;117984;-86
2024/03/17 10:38:01;;;;;;;8.32;3.65;;;;;;;15.84;54.62;102022.41;4909381;28;124353;-81
2024/03/17 10:40:29;;;;;;;8.35;3.58;;;;;;;15.88;54.52;102013.28;4919255;28;125632;-82
2024/03/17 10:42:57;;;;;;;6.47;3.60;;;;;;;15.92;54.48;102014.91;4908135;28;120369;-85
2024/03/17 10:45:24;;;;;;;6.15;3.45;;;;;;;15.94;54.33;102010.34;4908093;28;117969;-83
2024/03/17 10:47:52;;;;;;;6.40;4.05;;;;;;;15.95;54.37;102010.28;4913298;28;125292;-86
2024/03/17 10:50:21;;;;;;;6.97;3.72;;;;;;;16.04;54.19;102014.28;4906179;28;123247;-81
2024/03/17 10:52:52;;;;;;;6.20;4.20;;;;;;;16.14;54.57;102025.38;4890444;28;121033;-83
2024/03/17 10:55:23;;;;;;;7.68;4.32;;;;;;;16.23;54.27;102018.72;4901641;28;118959;-83
2024/03/17 10:57:58;;;;;;;8.00;4.22;;;;;;;16.30;54.32;102020.16;4885419;28;124346;-81
2024/03/17 11:00:29;;;;;;;7.05;4.10;;;;;;;16.40;54.39;102010.69;4903084;28;125713;-82
2024/03/17 11:02:55;;;;;;;8.13;4.20;;;;;;;16.46;54.15;102010.41;4884897;28;119240;-83
2024/03/17 11:05:24;;;;;;;7.18;4.20;;;;;;;16.51;54.03;102004.81;4902497;28;118792;-82
2024/03/17 11:07:54;;;;;;;6.55;4.18;;;;;;;16.55;53.89;102004.56;4867688;28;124715;-82
2024/03/17 11:10:23;;;;;;;8.65;4.07;;;;;;;16.55;53.82;102004.56;4902382;28;122930;-81
2024/03/17 11:13:00;;;;;;;7.47;4.03;;;;;;;16.57;53.70;101996.47;4904618;28;119267;-81
2024/03/17 11:15:38;;;;;;;7.07;4.05;;;;;;;16.59;53.57;102001.75;4898389;28;119409;-81
2024/03/17 11:18:07;;;;;;;8.63;4.38;;;;;;;16.60;53.62;102006.16;4884391;28;124420;-83
2024/03/17 11:20:35;;;;;;;11.38;4.78;;;;;;;16.67;53.72;102002.19;4900467;28;123047;-81
2024/03/17 11:23:02;;;;;;;8.98;4.40;;;;;;;16.71;53.61;102001.13;4906701;28;120539;-82